Terminal Aerodrome Forecast
Issued by NWS

Home | Current Version | Previous Version | Text Only | Print | Product List | Glossary On
Versions: 1 2 3 4 5 6 7 8 9 10 11 12 13 14 15 16 17 18
000
FTUS45 KTFX 172341
TAFLWT
TAF
KLWT 172341Z 1800/1824 12011KT P6SM SCT200
     FM180600 28006KT P6SM SCT150
     FM181200 33015G27KT P6SM VCSH SCT030 OVC050 PROB30 1815/1821
      -SHRA BKN025
     FM182100 34016G28KT P6SM SCT035 BKN060=

USA.gov is the U.S. government's official web portal to all federal, state and local government web resources and services.